createdAt,value
2022-08-18T00:01:45.087Z,5.85
2022-08-18T00:04:33.081Z,5.10
2022-08-18T00:06:50.725Z,5.53
2022-08-18T00:09:12.348Z,5.75
2022-08-18T00:11:41.097Z,9.07
2022-08-18T00:14:03.858Z,9.63
2022-08-18T00:16:25.404Z,8.98
2022-08-18T00:18:46.825Z,6.97
2022-08-18T00:21:08.305Z,6.05
2022-08-18T00:23:32.503Z,6.05
2022-08-18T00:25:55.315Z,7.90
2022-08-18T00:28:16.794Z,5.68
2022-08-18T00:30:38.372Z,5.80
2022-08-18T00:33:01.193Z,6.82
2022-08-18T00:35:37.773Z,5.63
2022-08-18T00:38:01.607Z,5.50
2022-08-18T00:40:38.286Z,7.03
2022-08-18T00:43:04.073Z,5.93
2022-08-18T00:45:32.955Z,6.00
2022-08-18T00:47:55.077Z,7.43
2022-08-18T00:50:22.467Z,6.88
2022-08-18T00:52:52.501Z,8.52
2022-08-18T00:55:15.190Z,6.13
2022-08-18T00:57:36.716Z,7.65
2022-08-18T01:00:09.782Z,9.30
2022-08-18T01:02:37.809Z,7.88
2022-08-18T01:05:06.551Z,5.00
2022-08-18T01:07:36.358Z,7.82
2022-08-18T01:09:59.780Z,10.40
2022-08-18T01:12:46.360Z,7.00
2022-08-18T01:15:03.138Z,6.53
2022-08-18T01:17:44.405Z,7.15
2022-08-18T01:20:24.852Z,8.68
2022-08-18T01:22:49.299Z,5.30
2022-08-18T01:25:29.591Z,7.40
2022-08-18T01:27:51.505Z,8.32
2022-08-18T01:30:17.429Z,6.55
2022-08-18T01:32:40.787Z,7.93
2022-08-18T01:35:02.744Z,6.32
2022-08-18T01:37:24.924Z,7.53
2022-08-18T01:41:23.494Z,6.15
2022-08-18T01:42:28.967Z,6.53
2022-08-18T01:44:51.401Z,5.70
2022-08-18T01:47:12.864Z,5.88
2022-08-18T01:49:34.876Z,6.82
2022-08-18T01:51:56.330Z,9.80
2022-08-18T01:54:17.814Z,6.65
2022-08-18T01:56:41.015Z,8.63
2022-08-18T01:59:02.506Z,7.80
2022-08-18T02:01:36.450Z,9.32
2022-08-18T02:04:31.045Z,6.80
2022-08-18T02:06:42.363Z,8.38
2022-08-18T02:09:09.415Z,7.78
2022-08-18T02:11:31.189Z,9.50
2022-08-18T02:13:53.187Z,7.00
2022-08-18T02:16:14.799Z,10.63
2022-08-18T02:18:48.304Z,6.70
2022-08-18T02:21:19.089Z,7.32
2022-08-18T02:23:44.937Z,9.70
2022-08-18T02:26:17.783Z,6.50
2022-08-18T02:28:40.616Z,7.20
2022-08-18T02:31:11.344Z,8.27
2022-08-18T02:33:33.890Z,9.85
2022-08-18T02:35:55.594Z,6.93
2022-08-18T02:38:17.411Z,7.07
2022-08-18T02:40:39.385Z,8.23
2022-08-18T02:43:06.925Z,6.57
2022-08-18T02:45:29.002Z,7.25
2022-08-18T02:47:54.676Z,7.63
2022-08-18T02:50:16.934Z,6.28
2022-08-18T02:52:39.411Z,9.63
2022-08-18T02:55:02.442Z,7.82
2022-08-18T02:57:23.904Z,7.97
2022-08-18T02:59:46.918Z,10.55
2022-08-18T03:02:10.267Z,7.20
2022-08-18T03:04:32.409Z,7.22
2022-08-18T03:06:55.231Z,7.63
2022-08-18T03:09:18.480Z,7.00
2022-08-18T03:11:40.530Z,7.60
2022-08-18T03:14:05.650Z,9.98
2022-08-18T03:16:31.135Z,9.80
2022-08-18T03:18:53.714Z,8.02
2022-08-18T03:21:24.049Z,6.82
2022-08-18T03:23:45.586Z,9.65
2022-08-18T03:26:24.696Z,7.68
2022-08-18T03:28:48.762Z,7.95
2022-08-18T03:31:11.866Z,8.10
2022-08-18T03:33:33.813Z,7.45
2022-08-18T03:35:55.259Z,8.25
2022-08-18T03:38:16.866Z,8.18
2022-08-18T03:40:38.398Z,7.60
2022-08-18T03:43:06.389Z,8.10
2022-08-18T03:45:47.810Z,8.23
2022-08-18T03:48:11.015Z,10.30
2022-08-18T03:50:32.689Z,7.90
2022-08-18T03:52:54.304Z,12.43
2022-08-18T03:55:16.284Z,7.53
2022-08-18T03:57:39.073Z,8.35
2022-08-18T04:00:01.042Z,7.68
2022-08-18T04:02:23.915Z,8.07
2022-08-18T04:04:45.421Z,7.68
2022-08-18T04:07:14.304Z,10.88
2022-08-18T04:09:38.228Z,8.57
2022-08-18T04:12:06.947Z,8.38
2022-08-18T04:14:32.391Z,6.80
2022-08-18T04:16:53.938Z,7.60
2022-08-18T04:19:26.554Z,10.02
2022-08-18T04:21:53.115Z,8.32
2022-08-18T04:24:14.735Z,7.07
2022-08-18T04:26:39.553Z,8.55
2022-08-18T04:29:01.721Z,7.63
2022-08-18T04:31:24.794Z,13.52
2022-08-18T04:33:46.273Z,7.07
2022-08-18T04:36:20.685Z,8.75
2022-08-18T04:38:42.688Z,10.20
2022-08-18T04:41:05.506Z,7.65
2022-08-18T04:43:27.110Z,8.45
2022-08-18T04:45:50.666Z,8.95
2022-08-18T04:48:13.518Z,10.27
2022-08-18T04:50:37.071Z,7.00
2022-08-18T04:53:17.214Z,7.28
2022-08-18T04:55:38.636Z,7.88
2022-08-18T04:58:00.824Z,8.07
2022-08-18T05:00:22.302Z,9.55
2022-08-18T05:02:43.973Z,8.13
2022-08-18T05:05:06.394Z,8.57
2022-08-18T05:07:27.878Z,9.90
2022-08-18T05:09:49.784Z,7.80
2022-08-18T05:12:14.229Z,6.97
2022-08-18T05:14:36.236Z,8.63
2022-08-18T05:17:01.703Z,9.55
2022-08-18T05:19:26.686Z,7.45
2022-08-18T05:21:51.605Z,8.05
2022-08-18T05:24:13.730Z,10.25
2022-08-18T05:26:36.736Z,8.35
2022-08-18T05:29:17.798Z,7.40
2022-08-18T05:31:40.391Z,8.00
2022-08-18T05:34:04.036Z,7.95
2022-08-18T05:36:25.411Z,10.07
2022-08-18T05:38:58.726Z,8.07
2022-08-18T05:41:29.943Z,9.38
2022-08-18T05:43:52.543Z,8.55
2022-08-18T05:46:14.213Z,8.35
2022-08-18T05:48:42.735Z,8.25
2022-08-18T05:51:19.957Z,8.45
2022-08-18T05:54:06.125Z,8.30
2022-08-18T05:56:47.649Z,9.95
2022-08-18T05:59:11.020Z,8.07
2022-08-18T06:01:42.565Z,8.90
2022-08-18T06:04:26.461Z,8.23
2022-08-18T06:06:49.337Z,9.43
2022-08-18T06:09:17.558Z,8.90
2022-08-18T06:11:39.229Z,10.00
2022-08-18T06:14:01.388Z,9.63
2022-08-18T06:16:29.716Z,9.90
2022-08-18T06:18:59.438Z,8.57
2022-08-18T06:21:59.464Z,8.27
2022-08-18T06:24:24.577Z,9.15
2022-08-18T06:27:03.627Z,8.93
2022-08-18T06:29:47.263Z,9.27
2022-08-18T06:32:36.947Z,9.20
2022-08-18T06:35:18.538Z,12.52
2022-08-18T06:38:25.595Z,8.63
2022-08-18T06:40:48.631Z,9.23
2022-08-18T06:43:15.867Z,9.57
2022-08-18T06:45:40.083Z,11.35
2022-08-18T06:48:12.673Z,11.77
2022-08-18T06:50:46.721Z,8.38
2022-08-18T06:53:26.420Z,7.95
2022-08-18T06:55:50.612Z,10.40
2022-08-18T06:58:32.707Z,9.90
2022-08-18T07:01:05.796Z,10.45
2022-08-18T07:03:47.956Z,12.23
2022-08-18T07:06:24.580Z,11.23
2022-08-18T07:08:51.820Z,12.27
2022-08-18T07:11:23.115Z,10.15
2022-08-18T07:14:09.441Z,11.20
2022-08-18T07:16:57.817Z,10.35
2022-08-18T07:19:29.425Z,11.73
2022-08-18T07:25:34.624Z,11.35
2022-08-18T07:28:08.234Z,12.88
2022-08-18T07:30:54.810Z,10.88
2022-08-18T07:33:32.127Z,29.13
2022-08-18T07:36:07.818Z,13.48
2022-08-18T07:38:43.163Z,12.70
2022-08-18T07:41:37.017Z,11.80
2022-08-18T07:44:28.999Z,13.57
2022-08-18T07:47:02.333Z,16.27
2022-08-18T07:52:43.834Z,31.45
2022-08-18T08:01:45.557Z,31.75
2022-08-18T08:04:27.042Z,32.13
2022-08-18T08:07:22.515Z,33.13
2022-08-18T08:09:36.748Z,30.15
2022-08-18T08:12:11.155Z,28.73
2022-08-18T08:14:32.553Z,26.10
2022-08-18T08:17:30.484Z,25.20
2022-08-18T08:20:11.226Z,24.08
2022-08-18T08:22:52.967Z,28.30
2022-08-18T08:25:46.267Z,27.50
2022-08-18T08:28:42.770Z,28.02
2022-08-18T08:31:33.314Z,33.83
2022-08-18T08:34:06.018Z,32.55
2022-08-18T08:36:33.394Z,33.05
2022-08-18T08:38:57.024Z,38.50
2022-08-18T08:41:32.664Z,36.55
2022-08-18T08:44:20.777Z,38.50
2022-08-18T08:46:50.358Z,38.53
2022-08-18T08:49:28.881Z,38.00
2022-08-18T08:51:57.984Z,38.40
2022-08-18T08:54:24.778Z,39.35
2022-08-18T08:56:49.721Z,39.65
2022-08-18T08:59:15.215Z,39.28
2022-08-18T09:01:54.939Z,42.47
2022-08-18T09:04:37.706Z,40.60
2022-08-18T09:07:30.352Z,38.08
2022-08-18T09:10:24.632Z,38.65
2022-08-18T09:13:05.459Z,35.22
2022-08-18T09:15:58.332Z,36.15
2022-08-18T09:18:44.969Z,38.45
2022-08-18T09:21:34.459Z,40.60
2022-08-18T09:28:10.060Z,49.80
2022-08-18T09:30:53.730Z,44.47
2022-08-18T09:33:20.648Z,45.90
2022-08-18T09:35:54.924Z,42.90
2022-08-18T09:38:42.424Z,42.38
2022-08-18T09:41:32.886Z,40.92
2022-08-18T09:44:11.840Z,41.47
2022-08-18T09:46:43.837Z,43.95
2022-08-18T09:49:26.433Z,48.88
2022-08-18T09:51:50.438Z,45.83
2022-08-18T09:54:20.840Z,47.35
2022-08-18T09:56:53.964Z,47.25
2022-08-18T09:59:37.056Z,48.20
2022-08-18T10:02:06.510Z,46.92
2022-08-18T10:04:51.328Z,47.58
2022-08-18T10:07:38.773Z,46.45
2022-08-18T10:11:00.827Z,47.17
2022-08-18T10:13:33.920Z,46.33
2022-08-18T10:16:22.218Z,46.97
2022-08-18T10:19:15.088Z,46.10
2022-08-18T10:21:55.994Z,46.95
2022-08-18T10:24:36.918Z,47.42
2022-08-18T10:27:02.598Z,50.17
2022-08-18T10:29:32.278Z,48.83
2022-08-18T10:31:57.646Z,45.78
2022-08-18T10:34:51.416Z,44.63
2022-08-18T10:37:20.084Z,41.72
2022-08-18T10:39:52.935Z,46.15
2022-08-18T10:45:36.596Z,43.45
2022-08-18T10:48:16.882Z,46.22
2022-08-18T10:50:48.976Z,45.30
2022-08-18T10:53:39.161Z,43.20
2022-08-18T10:56:26.848Z,42.65
2022-08-18T10:59:28.217Z,45.40
2022-08-18T11:02:32.050Z,45.88
2022-08-18T11:07:42.932Z,43.42
2022-08-18T11:10:30.570Z,44.53
2022-08-18T11:13:17.928Z,46.05
2022-08-18T11:15:52.466Z,43.95
2022-08-18T11:18:32.647Z,45.78
2022-08-18T11:21:42.852Z,44.75
2022-08-18T11:24:27.122Z,44.22
2022-08-18T11:26:54.767Z,42.35
2022-08-18T11:29:29.003Z,41.60
2022-08-18T11:32:12.197Z,39.15
2022-08-18T11:34:53.073Z,37.78
2022-08-18T11:37:49.550Z,41.10
2022-08-18T11:41:08.674Z,42.70
2022-08-18T11:43:23.850Z,40.40
2022-08-18T11:45:48.180Z,42.05
2022-08-18T11:48:15.588Z,40.45
2022-08-18T11:51:01.857Z,43.03
2022-08-18T11:53:36.005Z,41.13
2022-08-18T11:56:30.538Z,41.90
2022-08-18T11:59:52.340Z,38.80
2022-08-18T12:02:21.408Z,40.65
2022-08-18T12:04:45.557Z,38.35
2022-08-18T12:07:11.460Z,39.67
2022-08-18T12:10:17.917Z,40.92
2022-08-18T12:15:43.435Z,40.63
2022-08-18T12:18:06.387Z,38.28
2022-08-18T12:20:28.329Z,38.40
2022-08-18T12:22:51.772Z,38.20
2022-08-18T12:25:16.343Z,34.97
2022-08-18T12:27:47.155Z,36.60
2022-08-18T12:30:16.806Z,34.08
2022-08-18T12:32:48.879Z,33.90
2022-08-18T12:35:12.253Z,33.58
2022-08-18T12:40:15.258Z,34.05
2022-08-18T12:42:37.068Z,34.00
2022-08-18T12:44:58.558Z,37.17
2022-08-18T12:47:23.038Z,38.38
2022-08-18T12:49:44.545Z,38.47
2022-08-18T12:52:06.999Z,38.72
2022-08-18T12:54:35.900Z,39.95
2022-08-18T12:56:58.077Z,41.13
2022-08-18T12:59:20.154Z,37.42
2022-08-18T13:01:41.848Z,37.28
2022-08-18T13:04:12.949Z,34.22
2022-08-18T13:06:40.797Z,36.78
2022-08-18T13:09:16.735Z,38.20
2022-08-18T13:11:49.312Z,37.90
2022-08-18T13:14:12.035Z,36.15
2022-08-18T13:16:47.825Z,36.75
2022-08-18T13:19:16.348Z,34.05
2022-08-18T13:21:41.458Z,32.92
2022-08-18T13:24:05.227Z,31.10
2022-08-18T13:26:36.044Z,30.33
2022-08-18T13:28:58.608Z,28.63
2022-08-18T13:31:20.353Z,36.40
2022-08-18T13:33:59.775Z,35.67
2022-08-18T13:36:22.661Z,27.60
2022-08-18T13:38:44.115Z,30.80
2022-08-18T13:41:06.402Z,33.55
2022-08-18T13:43:34.509Z,30.50
2022-08-18T13:45:56.568Z,28.63
2022-08-18T13:48:18.101Z,32.28
2022-08-18T13:50:40.357Z,32.85
2022-08-18T13:53:03.273Z,34.05
2022-08-18T13:55:29.115Z,33.95
2022-08-18T13:57:50.660Z,31.60
2022-08-18T14:00:29.708Z,28.83
2022-08-18T14:02:55.360Z,31.02
2022-08-18T14:05:18.109Z,31.75
2022-08-18T14:07:43.033Z,31.40
2022-08-18T14:10:08.186Z,34.05
2022-08-18T14:12:37.506Z,26.52
2022-08-18T14:15:01.605Z,24.95
2022-08-18T14:17:25.462Z,25.80
2022-08-18T14:20:05.673Z,27.13
2022-08-18T14:22:51.425Z,26.23
2022-08-18T14:25:33.265Z,25.63
2022-08-18T14:27:56.784Z,25.25
2022-08-18T14:30:19.029Z,24.00
2022-08-18T14:32:49.226Z,24.58
2022-08-18T14:35:33.835Z,21.33
2022-08-18T14:37:56.279Z,20.13
2022-08-18T14:40:20.171Z,20.00
2022-08-18T14:42:54.332Z,20.90
2022-08-18T14:51:10.309Z,22.73
2022-08-18T14:56:22.646Z,21.60
2022-08-18T14:58:49.785Z,19.38
2022-08-18T15:01:13.339Z,20.38
2022-08-18T15:03:38.919Z,20.77
2022-08-18T15:06:04.496Z,19.88
2022-08-18T15:08:26.704Z,20.45
2022-08-18T15:10:48.824Z,19.63
2022-08-18T15:13:13.083Z,18.85
2022-08-18T15:15:50.852Z,19.00
2022-08-18T15:18:13.413Z,17.35
2022-08-18T15:20:54.955Z,16.20
2022-08-18T15:23:35.118Z,17.55
2022-08-18T15:25:56.794Z,19.67
2022-08-18T15:28:23.732Z,24.70
2022-08-18T15:30:51.063Z,21.65
2022-08-18T15:33:16.765Z,23.05
2022-08-18T15:35:44.186Z,24.92
2022-08-18T15:38:07.021Z,24.95
2022-08-18T15:40:30.751Z,20.67
2022-08-18T15:43:03.680Z,23.23
2022-08-18T15:45:28.582Z,23.20
2022-08-18T15:47:56.951Z,22.15
2022-08-18T15:50:26.052Z,22.45
2022-08-18T15:53:08.022Z,21.75
2022-08-18T15:55:35.896Z,20.50
2022-08-18T15:57:59.748Z,22.05
2022-08-18T16:00:25.012Z,23.25
2022-08-18T16:02:53.482Z,22.17
2022-08-18T16:05:15.631Z,20.80
2022-08-18T16:07:41.009Z,21.70
2022-08-18T16:10:06.961Z,22.17
2022-08-18T16:12:28.457Z,23.15
2022-08-18T16:14:52.871Z,24.15
2022-08-18T16:17:23.607Z,24.30
2022-08-18T16:19:46.303Z,20.83
2022-08-18T16:22:07.764Z,25.23
2022-08-18T16:24:29.224Z,27.20
2022-08-18T16:26:51.965Z,28.73
2022-08-18T16:29:13.458Z,28.77
2022-08-18T16:31:34.933Z,26.80
2022-08-18T16:33:57.865Z,27.10
2022-08-18T16:36:19.617Z,28.10
2022-08-18T16:38:43.290Z,29.25
2022-08-18T16:41:14.939Z,28.63
2022-08-18T16:43:37.620Z,28.95
2022-08-18T16:45:59.612Z,30.27
2022-08-18T16:48:21.812Z,28.80
2022-08-18T16:50:45.312Z,29.02
2022-08-18T16:53:06.844Z,27.20
2022-08-18T16:55:28.381Z,27.90
2022-08-18T16:58:10.669Z,27.38
2022-08-18T17:00:54.908Z,25.75
2022-08-18T17:03:35.574Z,25.30
2022-08-18T17:06:06.549Z,24.48
2022-08-18T17:08:28.410Z,24.38
2022-08-18T17:10:50.324Z,24.55
2022-08-18T17:13:11.865Z,24.65
2022-08-18T17:15:33.376Z,26.52
2022-08-18T17:17:54.896Z,27.33
2022-08-18T17:20:18.822Z,27.08
2022-08-18T17:22:40.740Z,31.08
2022-08-18T17:25:03.290Z,31.52
2022-08-18T17:27:37.302Z,29.38
2022-08-18T17:30:13.763Z,29.17
2022-08-18T17:32:53.255Z,30.80
2022-08-18T17:35:36.830Z,33.20
2022-08-18T17:38:07.190Z,32.08
2022-08-18T17:40:48.014Z,31.02
2022-08-18T17:43:13.889Z,34.35
2022-08-18T17:45:36.032Z,31.90
2022-08-18T17:48:11.751Z,32.58
2022-08-18T17:50:56.079Z,32.58
2022-08-18T17:53:21.726Z,33.58
2022-08-18T17:55:49.739Z,32.65
2022-08-18T17:58:29.613Z,34.22
2022-08-18T18:00:51.068Z,34.35
2022-08-18T18:03:13.421Z,32.63
2022-08-18T18:05:43.053Z,35.67
2022-08-18T18:08:05.510Z,33.75
2022-08-18T18:11:03.890Z,31.85
2022-08-18T18:13:29.242Z,33.10
2022-08-18T18:15:53.854Z,31.38
2022-08-18T18:18:41.757Z,31.70
2022-08-18T18:21:19.721Z,31.30
2022-08-18T18:23:48.775Z,29.50
2022-08-18T18:26:22.760Z,28.70
2022-08-18T18:28:44.270Z,32.05
2022-08-18T18:31:35.112Z,29.73
2022-08-18T18:34:06.856Z,30.95
2022-08-18T18:36:47.667Z,31.25
2022-08-18T18:39:17.160Z,30.75
2022-08-18T18:41:40.563Z,31.02
2022-08-18T18:44:09.414Z,33.60
2022-08-18T18:46:35.254Z,33.42
2022-08-18T18:48:56.632Z,33.83
2022-08-18T18:51:33.679Z,30.33
2022-08-18T18:54:14.984Z,33.22
2022-08-18T18:56:52.679Z,32.92
2022-08-18T18:59:25.791Z,34.13
2022-08-18T19:02:34.161Z,32.92
2022-08-18T19:05:32.620Z,31.08
2022-08-18T19:08:35.252Z,32.80
2022-08-18T19:11:20.872Z,33.10
2022-08-18T19:14:09.455Z,33.33
2022-08-18T19:19:46.703Z,29.15
2022-08-18T19:22:19.371Z,33.28
2022-08-18T19:25:07.449Z,33.47
2022-08-18T19:27:56.238Z,33.75
2022-08-18T19:31:07.751Z,32.22
2022-08-18T19:33:49.669Z,32.15
2022-08-18T19:36:54.882Z,32.25
2022-08-18T19:39:47.289Z,33.63
2022-08-18T19:42:31.596Z,32.03
2022-08-18T19:45:31.843Z,32.33
2022-08-18T19:48:15.155Z,29.40
2022-08-18T19:51:04.054Z,32.25
2022-08-18T19:54:25.073Z,29.92
2022-08-18T19:57:24.878Z,32.33
2022-08-18T20:00:23.520Z,32.28
2022-08-18T20:03:33.458Z,31.08
2022-08-18T20:06:35.875Z,33.58
2022-08-18T20:09:35.971Z,32.67
2022-08-18T20:14:54.225Z,37.42
2022-08-18T20:17:23.598Z,36.47
2022-08-18T20:20:15.107Z,39.42
2022-08-18T20:22:48.747Z,36.58
2022-08-18T20:25:53.052Z,41.67
2022-08-18T20:28:40.694Z,37.47
2022-08-18T20:31:47.336Z,39.47
2022-08-18T20:34:30.767Z,33.55
2022-08-18T20:37:03.025Z,34.65
2022-08-18T20:40:03.655Z,35.20
2022-08-18T20:42:55.928Z,34.08
2022-08-18T20:45:48.692Z,37.00
2022-08-18T20:51:58.342Z,36.90
2022-08-18T20:55:00.490Z,34.78
2022-08-18T20:57:55.568Z,36.88
2022-08-18T21:00:27.818Z,37.20
2022-08-18T21:03:20.292Z,35.22
2022-08-18T21:08:54.362Z,36.53
2022-08-18T21:11:29.684Z,41.05
2022-08-18T21:13:59.599Z,37.50
2022-08-18T21:16:38.639Z,36.03
2022-08-18T21:19:11.343Z,36.00
2022-08-18T21:21:51.735Z,37.08
2022-08-18T21:24:35.666Z,33.95
2022-08-18T21:27:08.245Z,40.78
2022-08-18T21:29:38.248Z,36.38
2022-08-18T21:32:17.798Z,32.97
2022-08-18T21:34:48.055Z,34.88
2022-08-18T21:37:28.062Z,37.17
2022-08-18T21:48:17.767Z,41.05
2022-08-18T21:51:00.966Z,38.50
2022-08-18T21:53:29.773Z,37.45
2022-08-18T21:55:58.055Z,38.30
2022-08-18T21:58:46.130Z,36.75
2022-08-18T22:01:17.804Z,35.30
2022-08-18T22:04:18.112Z,34.03
2022-08-18T22:10:20.969Z,34.58
2022-08-18T22:13:16.931Z,36.92
2022-08-18T22:15:52.767Z,32.70
2022-08-18T22:18:21.871Z,36.28
2022-08-18T22:20:50.399Z,36.35
2022-08-18T22:26:24.964Z,33.17
2022-08-18T22:29:16.770Z,38.55
2022-08-18T22:31:49.117Z,35.67
2022-08-18T22:34:27.401Z,35.03
2022-08-18T22:37:06.331Z,38.13
2022-08-18T22:39:55.340Z,35.63
2022-08-18T22:42:30.400Z,37.65
2022-08-18T22:45:04.918Z,36.97
2022-08-18T22:47:45.135Z,34.30
2022-08-18T22:50:16.377Z,33.35
2022-08-18T22:52:51.296Z,38.47
2022-08-18T22:55:28.669Z,37.65
2022-08-18T23:00:45.265Z,37.05
2022-08-18T23:03:18.692Z,32.70
2022-08-18T23:05:58.138Z,35.28
2022-08-18T23:08:55.355Z,33.95
2022-08-18T23:11:30.051Z,33.90
2022-08-18T23:14:06.137Z,34.30
2022-08-18T23:16:32.894Z,35.33
2022-08-18T23:18:57.970Z,36.45
2022-08-18T23:21:34.981Z,32.55
2022-08-18T23:24:06.368Z,35.33
2022-08-18T23:26:58.640Z,36.47
2022-08-18T23:29:26.619Z,36.67
2022-08-18T23:31:55.000Z,35.85
2022-08-18T23:34:33.110Z,34.70
2022-08-18T23:39:49.847Z,35.17
2022-08-18T23:42:16.053Z,35.45
2022-08-18T23:44:52.207Z,38.67
2022-08-18T23:47:23.114Z,42.45
2022-08-18T23:50:12.895Z,35.05
2022-08-18T23:53:11.527Z,34.60
2022-08-18T23:55:38.856Z,34.53
2022-08-18T23:58:14.014Z,35.10
